Cottonwood Point, Missouri
Current Conditions -  °F | °C
As of 12:53 AM on Thursday 18 Dec 2014 (Local Time) from KHKA Reporting Station
Light Rain Light Rain  
Wind Chill: 32°   Ceiling: 6000
Heat Index: 37°   Visibility: 6mi
Dew Point: 35°   Wind: 7mph
Humidity: 93%   Direction: 30°NNE
Pressure: 30.3"   Gusts: NA
Location:  36.1543°N, 89.7088°W
Report Text: KHKA 180653Z AUTO 03006KT 6SM -RA BR BKN060 OVC075 03/02 A3030 RMK AO2 SLP262 P0007 T00280017
Loading
Personal Weather Stations






























Interactive Weather Map New forecast layout! Learn more

10-Day Weather Forecast

Advertisements
Track Severe Weather on mobile